Hope, Alaska
Current Conditions -  °F | °C
As of 5:53 PM on Sunday 21 Dec 2014 (Local Time) from PANC Reporting Station
Overcast Overcast  
Wind Chill: 27°   Ceiling: 1200
Heat Index: 27°   Visibility: 10mi
Dew Point: 21°   Wind: 3mph
Humidity: 78%   Direction: 30°NNE
Pressure: 29.4"   Gusts: NA
Location:  60.91°N, 149.63°W
Report Text: PANC 220253Z 03003KT 10SM BKN012 OVC016 M03/M06 A2940 RMK AO2 SLP957 60000 T10281061 53024
Loading
Personal Weather Stations






























Interactive Weather Map New forecast layout! Learn more

10-Day Weather Forecast

Advertisements
Track Severe Weather on mobile